Time;durP1;ratioP1;P1;durP2;ratioP2;P2;SDS_P1;SDS_P2;PMS_P1;PMS_P2;Temp;Humidity;BMP_temperature;BMP_pressure;BME280_temperature;BME280_humidity;BME280_pressure;Samples;Min_cycle;Max_cycle;Signal;HPM_P1;HPM_P2
2022/03/15 00:01:12;;;;;;;6.32;5.10;;;7.30;54.60;;;;;;5013994;28;20226;-74
2022/03/15 00:03:39;;;;;;;8.38;5.45;;;7.30;54.70;;;;;;5014108;28;20670;-74
2022/03/15 00:06:06;;;;;;;10.13;5.65;;;7.20;54.90;;;;;;5014559;28;20215;-75
2022/03/15 00:08:33;;;;;;;7.60;5.05;;;7.20;55.00;;;;;;5015155;28;20348;-74
2022/03/15 00:11:04;;;;;;;5.60;5.00;;;7.20;55.10;;;;;;5014733;28;20215;-74
2022/03/15 00:13:32;;;;;;;5.70;4.38;;;7.10;55.30;;;;;;5014944;28;20195;-74
2022/03/15 00:16:01;;;;;;;11.40;5.25;;;7.10;55.70;;;;;;5014365;28;20237;-75
2022/03/15 00:18:31;;;;;;;8.40;5.15;;;7.00;56.10;;;;;;5014230;28;20217;-74
2022/03/15 00:20:58;;;;;;;6.30;5.05;;;6.90;57.00;;;;;;5014444;28;20273;-74
2022/03/15 00:23:24;;;;;;;7.35;5.15;;;6.90;57.00;;;;;;5014043;28;20211;-74
2022/03/15 00:25:52;;;;;;;10.90;5.00;;;6.90;57.00;;;;;;5014101;28;20314;-76
2022/03/15 00:28:19;;;;;;;11.30;6.28;;;6.80;56.90;;;;;;5013961;28;20214;-75
2022/03/15 00:30:46;;;;;;;6.15;5.15;;;6.80;56.90;;;;;;5013377;28;20207;-75
2022/03/15 00:33:13;;;;;;;7.40;5.10;;;6.80;56.90;;;;;;5015402;28;20241;-75
2022/03/15 00:35:42;;;;;;;7.20;4.90;;;6.80;56.90;;;;;;5016250;28;20249;-75
2022/03/15 00:38:10;;;;;;;7.93;5.30;;;6.80;56.90;;;;;;5024841;28;20318;-75
2022/03/15 00:40:37;;;;;;;6.95;4.85;;;6.80;56.90;;;;;;5019265;28;20239;-74
2022/03/15 00:43:06;;;;;;;8.40;5.22;;;6.80;57.40;;;;;;5015089;28;20273;-73
2022/03/15 00:45:33;;;;;;;6.45;5.40;;;6.70;57.80;;;;;;5017168;28;20245;-73
2022/03/15 00:48:00;;;;;;;6.22;5.40;;;6.70;57.60;;;;;;5021646;28;20215;-74
2022/03/15 00:50:28;;;;;;;9.05;5.60;;;6.80;57.90;;;;;;5022895;28;20207;-73
2022/03/15 00:52:57;;;;;;;7.38;4.90;;;6.70;57.90;;;;;;5023403;28;20238;-73
2022/03/15 00:55:24;;;;;;;8.45;5.20;;;6.70;58.10;;;;;;5021375;28;20288;-73
2022/03/15 00:57:51;;;;;;;6.28;5.22;;;6.70;58.40;;;;;;5018804;28;20730;-72
2022/03/15 01:00:19;;;;;;;9.77;6.03;;;6.70;58.80;;;;;;5018610;28;20222;-72
2022/03/15 01:02:46;;;;;;;11.65;5.30;;;6.70;58.60;;;;;;5017706;28;20801;-73
2022/03/15 01:05:13;;;;;;;7.13;6.05;;;6.70;58.60;;;;;;5016141;28;20768;-73
2022/03/15 01:07:40;;;;;;;9.88;5.68;;;6.70;58.90;;;;;;5016336;28;20211;-74
2022/03/15 01:10:09;;;;;;;8.70;5.22;;;6.60;59.00;;;;;;5015537;28;20276;-74
2022/03/15 01:12:36;;;;;;;12.70;6.05;;;6.70;59.10;;;;;;5016945;28;20600;-73
2022/03/15 01:15:03;;;;;;;6.60;4.82;;;6.60;59.20;;;;;;5017039;28;20244;-75
2022/03/15 01:17:30;;;;;;;7.57;5.65;;;6.60;59.50;;;;;;5016016;28;20213;-74
2022/03/15 01:19:57;;;;;;;9.13;5.88;;;6.60;59.50;;;;;;5015901;28;20297;-73
2022/03/15 01:22:24;;;;;;;6.63;5.65;;;6.60;59.60;;;;;;5016317;28;20212;-75
2022/03/15 01:24:51;;;;;;;5.35;4.85;;;6.60;59.70;;;;;;5015765;28;20318;-74
2022/03/15 01:27:20;;;;;;;10.38;5.18;;;6.60;60.20;;;;;;5013276;28;20242;-75
2022/03/15 01:29:47;;;;;;;6.60;4.32;;;6.60;59.60;;;;;;5013397;28;20233;-74
2022/03/15 01:32:15;;;;;;;8.75;4.78;;;6.60;59.80;;;;;;5013644;28;20305;-74
2022/03/15 01:34:42;;;;;;;6.10;4.78;;;6.60;59.70;;;;;;5013929;28;20238;-74
2022/03/15 01:37:09;;;;;;;6.30;4.70;;;6.70;59.40;;;;;;5013333;28;20209;-74
2022/03/15 01:39:37;;;;;;;8.32;5.22;;;6.70;59.40;;;;;;5013769;28;20740;-73
2022/03/15 01:42:04;;;;;;;9.45;5.07;;;6.70;59.20;;;;;;5016432;28;20710;-74
2022/03/15 01:44:33;;;;;;;8.85;4.85;;;6.80;58.90;;;;;;5016845;28;20571;-74
2022/03/15 01:47:01;;;;;;;5.53;4.22;;;6.90;58.40;;;;;;5017110;28;20211;-74
2022/03/15 01:49:28;;;;;;;6.13;4.70;;;6.90;58.00;;;;;;5016578;28;20215;-74
2022/03/15 01:51:55;;;;;;;6.15;4.40;;;6.90;57.80;;;;;;5016921;28;20565;-74
2022/03/15 01:54:22;;;;;;;8.20;4.85;;;6.90;57.90;;;;;;5017219;28;20719;-75
2022/03/15 01:56:49;;;;;;;7.03;4.93;;;6.90;57.70;;;;;;5018030;28;20323;-74
2022/03/15 01:59:18;;;;;;;10.30;4.32;;;7.00;57.10;;;;;;5017205;28;20213;-75
2022/03/15 02:01:47;;;;;;;8.85;4.50;;;7.00;57.10;;;;;;5017452;28;20321;-74
2022/03/15 02:04:15;;;;;;;5.40;4.65;;;7.00;57.10;;;;;;5017209;28;20659;-74
2022/03/15 02:06:42;;;;;;;5.18;4.50;;;7.00;57.10;;;;;;5017465;28;20239;-74
2022/03/15 02:09:10;;;;;;;5.95;5.43;;;7.10;57.10;;;;;;5016753;28;20207;-74
2022/03/15 02:11:37;;;;;;;5.25;3.80;;;7.10;57.10;;;;;;5016403;28;20210;-75
2022/03/15 02:14:04;;;;;;;7.18;4.97;;;7.10;57.10;;;;;;5017326;28;20234;-74
2022/03/15 02:16:32;;;;;;;5.35;4.47;;;7.10;57.10;;;;;;5017074;28;20214;-75
2022/03/15 02:19:01;;;;;;;7.70;3.95;;;7.10;57.10;;;;;;5017132;28;20546;-74
2022/03/15 02:21:30;;;;;;;7.03;5.03;;;7.00;57.10;;;;;;5017219;28;20241;-75
2022/03/15 02:23:57;;;;;;;7.72;5.07;;;7.00;57.10;;;;;;5017966;28;20233;-73
2022/03/15 02:26:24;;;;;;;8.43;5.65;;;6.90;57.00;;;;;;5019481;28;20222;-73
2022/03/15 02:28:51;;;;;;;6.43;4.95;;;7.00;57.10;;;;;;5034087;28;20226;-75
2022/03/15 02:31:20;;;;;;;7.55;4.55;;;7.00;57.10;;;;;;5035376;28;20231;-73
2022/03/15 02:33:46;;;;;;;5.15;4.15;;;7.00;57.10;;;;;;5034536;28;20215;-75
2022/03/15 02:36:15;;;;;;;7.65;4.57;;;7.10;57.10;;;;;;5061629;22;20298;-76
2022/03/15 02:38:43;;;;;;;4.85;3.92;;;7.10;57.10;;;;;;5040056;28;20642;-78
2022/03/15 02:41:10;;;;;;;9.27;4.53;;;7.20;57.20;;;;;;5038831;28;20605;-77
2022/03/15 02:43:37;;;;;;;9.75;4.50;;;7.20;56.70;;;;;;5039551;28;20245;-76
2022/03/15 02:46:04;;;;;;;6.20;4.50;;;7.20;56.80;;;;;;5040044;28;20246;-76
2022/03/15 02:48:31;;;;;;;5.82;5.03;;;7.20;56.90;;;;;;5040540;28;20281;-78
2022/03/15 02:50:58;;;;;;;9.23;4.53;;;7.10;57.10;;;;;;5046742;28;20194;-76
2022/03/15 02:53:25;;;;;;;8.68;4.55;;;7.10;57.10;;;;;;5040302;28;20240;-76
2022/03/15 02:55:54;;;;;;;6.22;4.20;;;7.10;57.10;;;;;;5039400;28;20237;-77
2022/03/15 02:58:21;;;;;;;7.10;4.50;;;7.10;57.10;;;;;;5039836;28;20281;-78
2022/03/15 03:00:48;;;;;;;6.35;4.38;;;7.10;57.10;;;;;;5039115;28;20225;-76
2022/03/15 03:03:15;;;;;;;6.97;4.78;;;7.10;57.10;;;;;;5040369;28;20258;-78
2022/03/15 03:05:42;;;;;;;6.75;4.25;;;7.10;57.10;;;;;;5039088;28;20254;-77
2022/03/15 03:08:10;;;;;;;9.23;4.68;;;7.00;57.10;;;;;;5037989;28;20221;-76
2022/03/15 03:10:37;;;;;;;11.15;4.50;;;7.00;57.10;;;;;;5038025;28;20210;-76
2022/03/15 03:13:08;;;;;;;7.47;4.80;;;6.90;57.00;;;;;;5039290;28;20210;-77
2022/03/15 03:15:35;;;;;;;5.15;4.30;;;6.90;57.80;;;;;;5038625;28;20233;-76
2022/03/15 03:18:02;;;;;;;6.03;4.78;;;6.90;57.80;;;;;;5039104;28;20245;-76
2022/03/15 03:20:30;;;;;;;5.57;4.40;;;6.80;58.00;;;;;;5038956;28;20209;-77
2022/03/15 03:22:58;;;;;;;11.25;5.10;;;6.80;58.40;;;;;;5042716;28;20236;-76
2022/03/15 03:25:26;;;;;;;7.25;4.93;;;6.80;58.40;;;;;;5043423;28;20329;-76
2022/03/15 03:27:53;;;;;;;6.95;5.15;;;6.70;58.60;;;;;;5045050;28;20255;-77
2022/03/15 03:30:22;;;;;;;4.97;4.47;;;6.70;59.20;;;;;;5041039;28;20213;-78
2022/03/15 03:32:49;;;;;;;9.55;5.10;;;6.70;59.40;;;;;;5046371;28;20221;-77
2022/03/15 03:35:16;;;;;;;8.57;5.38;;;6.70;59.70;;;;;;5046030;28;20778;-78
2022/03/15 03:37:43;;;;;;;5.53;4.50;;;6.70;60.00;;;;;;5038794;28;20300;-77
2022/03/15 03:40:10;;;;;;;8.77;4.75;;;6.60;60.20;;;;;;5038627;28;20209;-76
2022/03/15 03:42:37;;;;;;;7.32;4.80;;;6.60;60.50;;;;;;5040450;28;20225;-76
2022/03/15 03:45:05;;;;;;;5.75;5.00;;;6.50;61.20;;;;;;5050500;28;20238;-74
2022/03/15 03:47:33;;;;;;;8.63;5.03;;;6.50;61.10;;;;;;5052848;28;20220;-76
2022/03/15 03:50:00;;;;;;;7.57;5.50;;;6.50;61.40;;;;;;5043748;28;20217;-77
2022/03/15 03:52:27;;;;;;;6.45;5.32;;;6.50;61.50;;;;;;5052534;28;20206;-76
2022/03/15 03:54:54;;;;;;;8.27;5.50;;;6.50;61.40;;;;;;5049706;28;20237;-76
2022/03/15 03:57:21;;;;;;;7.70;4.70;;;6.60;61.20;;;;;;5040171;28;20228;-76
2022/03/15 03:59:48;;;;;;;6.55;4.65;;;6.60;61.30;;;;;;5048005;28;20215;-75
2022/03/15 04:02:15;;;;;;;10.00;4.85;;;6.60;60.90;;;;;;5052961;28;20229;-75
2022/03/15 04:04:44;;;;;;;9.32;5.50;;;6.60;60.70;;;;;;5052287;28;20228;-77
2022/03/15 04:07:12;;;;;;;5.40;4.75;;;6.60;60.80;;;;;;5049402;28;20254;-76
2022/03/15 04:09:39;;;;;;;10.98;5.28;;;6.60;60.60;;;;;;5041383;28;20248;-77
2022/03/15 04:12:07;;;;;;;4.85;4.30;;;6.70;60.60;;;;;;5056316;28;20236;-77
2022/03/15 04:14:35;;;;;;;8.57;4.88;;;6.70;60.50;;;;;;5056914;28;20246;-74
2022/03/15 04:17:03;;;;;;;6.88;5.40;;;6.80;60.30;;;;;;5056045;28;20248;-73
2022/03/15 04:19:30;;;;;;;7.00;4.97;;;6.80;60.00;;;;;;5057134;28;20240;-76
2022/03/15 04:21:58;;;;;;;5.25;4.70;;;6.80;60.00;;;;;;5056448;28;20231;-75
2022/03/15 04:24:25;;;;;;;10.00;4.72;;;6.80;59.50;;;;;;5052868;28;20211;-76
2022/03/15 04:26:52;;;;;;;5.72;4.60;;;6.80;59.30;;;;;;5053350;28;20206;-77
2022/03/15 04:29:20;;;;;;;10.18;4.57;;;6.80;59.40;;;;;;5046419;28;20332;-78
2022/03/15 04:31:47;;;;;;;5.68;4.57;;;6.80;59.70;;;;;;5044981;28;20194;-78
2022/03/15 04:34:14;;;;;;;7.00;4.30;;;6.90;59.70;;;;;;5042921;28;20203;-78
2022/03/15 04:36:42;;;;;;;5.70;4.60;;;6.90;59.10;;;;;;5042291;28;20660;-76
2022/03/15 04:39:10;;;;;;;7.50;5.38;;;6.90;59.10;;;;;;5042777;28;20203;-74
2022/03/15 04:41:37;;;;;;;8.18;5.35;;;7.00;59.20;;;;;;5054982;28;20258;-77
2022/03/15 04:44:05;;;;;;;6.90;5.18;;;7.00;59.00;;;;;;5055459;28;20215;-75
2022/03/15 04:46:32;;;;;;;7.90;4.93;;;7.00;59.10;;;;;;5054556;28;20210;-77
2022/03/15 04:48:59;;;;;;;5.90;5.30;;;6.90;59.10;;;;;;5044291;28;20213;-77
2022/03/15 04:51:27;;;;;;;9.93;5.00;;;6.90;59.40;;;;;;5038339;28;20327;-76
2022/03/15 04:53:56;;;;;;;6.50;4.82;;;6.90;59.80;;;;;;5038292;28;20677;-75
2022/03/15 04:56:24;;;;;;;6.53;4.75;;;6.90;60.00;;;;;;5044607;28;20230;-78
2022/03/15 04:58:51;;;;;;;7.53;5.47;;;7.00;59.70;;;;;;5040240;28;20206;-77
2022/03/15 05:01:18;;;;;;;7.45;5.40;;;6.90;60.00;;;;;;5052785;28;20210;-75
2022/03/15 05:03:45;;;;;;;6.03;5.10;;;6.90;60.30;;;;;;5051849;28;20206;-75
2022/03/15 05:06:12;;;;;;;7.20;5.35;;;6.80;60.60;;;;;;5043026;28;20642;-77
2022/03/15 05:08:39;;;;;;;7.32;5.70;;;6.80;61.10;;;;;;5044013;28;20233;-79
2022/03/15 05:11:08;;;;;;;11.82;5.80;;;6.80;61.40;;;;;;5041988;28;20577;-77
2022/03/15 05:13:39;;;;;;;8.30;5.63;;;6.80;61.30;;;;;;5044041;28;20567;-78
2022/03/15 05:16:07;;;;;;;9.43;5.72;;;6.70;61.30;;;;;;5046129;28;20229;-77
2022/03/15 05:18:35;;;;;;;7.38;5.10;;;6.80;61.40;;;;;;5053696;28;20213;-77
2022/03/15 05:21:32;;;;;;;7.80;5.40;;;6.70;61.70;;;;;;5059603;28;20201;-76
2022/03/15 05:24:22;;;;;;;7.43;4.78;;;6.70;61.90;;;;;;5057764;28;20249;-74
2022/03/15 05:26:53;;;;;;;5.90;5.20;;;6.70;62.20;;;;;;5061911;28;20194;-77
2022/03/15 05:29:21;;;;;;;6.90;5.18;;;6.70;62.30;;;;;;5054512;28;20210;-78
2022/03/15 05:31:48;;;;;;;7.05;4.70;;;6.80;62.50;;;;;;5048217;28;20552;-78
2022/03/15 05:34:16;;;;;;;7.63;5.90;;;6.70;62.10;;;;;;5044627;28;20214;-77
2022/03/15 05:36:43;;;;;;;8.13;5.20;;;6.70;62.50;;;;;;5047653;28;20654;-77
2022/03/15 05:39:10;;;;;;;8.07;5.85;;;6.70;62.60;;;;;;5056463;28;20241;-78
2022/03/15 05:41:39;;;;;;;7.80;5.88;;;6.80;62.50;;;;;;5051552;28;20230;-77
2022/03/15 05:44:07;;;;;;;8.02;5.00;;;6.80;62.30;;;;;;5052140;28;20254;-77
2022/03/15 05:46:35;;;;;;;6.22;5.47;;;6.80;61.50;;;;;;5047013;28;20238;-77
2022/03/15 05:49:02;;;;;;;7.35;4.78;;;6.80;61.50;;;;;;5044009;28;20209;-74
2022/03/15 05:51:29;;;;;;;6.47;5.05;;;6.70;62.00;;;;;;5044854;28;20260;-77
2022/03/15 05:53:56;;;;;;;8.23;5.20;;;6.70;62.30;;;;;;5044912;28;20234;-77
2022/03/15 05:56:23;;;;;;;7.07;5.13;;;6.70;62.40;;;;;;5045468;28;20263;-78
2022/03/15 05:58:50;;;;;;;7.60;5.22;;;6.60;62.40;;;;;;5045319;28;20304;-76
2022/03/15 06:01:17;;;;;;;7.15;5.47;;;6.70;62.50;;;;;;5046231;28;20213;-78
2022/03/15 06:03:46;;;;;;;7.30;5.03;;;6.70;62.90;;;;;;5051364;28;20485;-79
2022/03/15 06:06:13;;;;;;;6.95;4.90;;;6.70;62.10;;;;;;5052661;28;20231;-77
2022/03/15 06:08:40;;;;;;;9.80;5.70;;;6.80;62.00;;;;;;5058314;28;20207;-78
2022/03/15 06:11:07;;;;;;;6.60;5.50;;;6.80;61.80;;;;;;5057744;28;20264;-77
2022/03/15 06:13:34;;;;;;;7.53;5.60;;;6.90;62.00;;;;;;5052625;28;20232;-77
2022/03/15 06:16:02;;;;;;;7.43;5.07;;;7.00;61.60;;;;;;5052136;28;20226;-76
2022/03/15 06:18:29;;;;;;;6.05;4.80;;;7.20;61.00;;;;;;5057271;28;20309;-78
2022/03/15 06:20:57;;;;;;;7.70;4.05;;;7.30;60.70;;;;;;5054606;28;20214;-78
2022/03/15 06:23:25;;;;;;;6.68;4.25;;;7.30;60.00;;;;;;5055335;28;20227;-78
2022/03/15 06:25:51;;;;;;;5.95;4.25;;;7.40;59.90;;;;;;5052425;28;20236;-79
2022/03/15 06:28:18;;;;;;;4.07;3.67;;;7.50;59.70;;;;;;5053166;28;20227;-76
2022/03/15 06:30:45;;;;;;;6.90;4.10;;;7.50;59.10;;;;;;5057188;28;20213;-77
2022/03/15 06:33:13;;;;;;;8.02;4.32;;;7.50;59.00;;;;;;5058336;28;20208;-75
2022/03/15 06:35:42;;;;;;;7.60;3.90;;;7.50;58.90;;;;;;5059442;28;20221;-76
2022/03/15 06:38:11;;;;;;;6.78;4.10;;;7.60;59.00;;;;;;5057265;28;20203;-76
2022/03/15 06:40:41;;;;;;;6.03;3.80;;;7.50;58.60;;;;;;5056984;28;20210;-77
2022/03/15 06:43:10;;;;;;;6.57;4.28;;;7.60;58.30;;;;;;5054308;28;20227;-76
2022/03/15 06:45:37;;;;;;;7.18;3.88;;;7.70;57.70;;;;;;5055941;28;20219;-77
2022/03/15 06:48:05;;;;;;;5.38;3.78;;;7.80;57.80;;;;;;5056659;28;20216;-75
2022/03/15 06:50:31;;;;;;;7.70;4.30;;;7.60;57.60;;;;;;5057040;28;20221;-76
2022/03/15 06:52:58;;;;;;;6.65;4.47;;;7.70;57.70;;;;;;5056089;28;20299;-75
2022/03/15 06:55:27;;;;;;;4.95;4.20;;;7.80;57.80;;;;;;5056632;28;20241;-76
2022/03/15 06:57:54;;;;;;;6.93;4.47;;;7.80;57.80;;;;;;5054541;28;20214;-77
2022/03/15 07:00:21;;;;;;;11.60;4.82;;;7.90;57.90;;;;;;5056906;28;20208;-77
2022/03/15 07:02:48;;;;;;;5.38;4.25;;;8.00;56.90;;;;;;5054274;28;20227;-78
2022/03/15 07:05:15;;;;;;;6.50;4.65;;;8.00;56.80;;;;;;5050757;28;20234;-78
2022/03/15 07:07:42;;;;;;;5.97;4.63;;;8.10;56.30;;;;;;5045359;28;20576;-77
2022/03/15 07:10:11;;;;;;;10.77;5.03;;;8.00;56.20;;;;;;5044192;28;20214;-78
2022/03/15 07:12:40;;;;;;;6.38;5.03;;;7.90;56.90;;;;;;5056043;28;20191;-77
2022/03/15 07:15:08;;;;;;;7.00;5.18;;;7.80;57.80;;;;;;5056576;28;20218;-76
2022/03/15 07:17:35;;;;;;;12.80;5.43;;;7.90;57.90;;;;;;5057013;28;20198;-77
2022/03/15 07:20:02;;;;;;;5.53;4.43;;;7.90;57.90;;;;;;5057762;28;20211;-77
2022/03/15 07:22:29;;;;;;;11.45;5.68;;;8.00;57.70;;;;;;5056913;28;20251;-75
2022/03/15 07:24:56;;;;;;;7.10;5.05;;;8.00;57.10;;;;;;5056967;28;20298;-77
2022/03/15 07:27:23;;;;;;;5.97;4.95;;;8.00;56.40;;;;;;5055694;28;20279;-77
2022/03/15 07:29:51;;;;;;;8.52;5.00;;;7.90;57.20;;;;;;5053882;28;20245;-78
2022/03/15 07:32:18;;;;;;;5.38;4.72;;;8.00;57.30;;;;;;5058100;28;20225;-78
2022/03/15 07:34:46;;;;;;;6.53;4.95;;;8.00;57.00;;;;;;5055992;28;20239;-77
2022/03/15 07:37:13;;;;;;;6.90;4.93;;;8.10;56.60;;;;;;5055390;28;20217;-79
2022/03/15 07:39:40;;;;;;;8.55;4.97;;;8.20;56.10;;;;;;5052688;28;20275;-77
2022/03/15 07:42:07;;;;;;;9.13;5.65;;;8.00;56.70;;;;;;5049222;28;20230;-79
2022/03/15 07:44:34;;;;;;;6.25;5.20;;;8.00;56.80;;;;;;5043059;28;20621;-77
2022/03/15 07:47:02;;;;;;;8.75;5.15;;;8.00;56.70;;;;;;5043045;28;20207;-78
2022/03/15 07:49:29;;;;;;;7.20;5.53;;;7.90;57.90;;;;;;5042480;28;20295;-78
2022/03/15 07:51:56;;;;;;;5.63;4.50;;;7.90;57.90;;;;;;5041177;28;20203;-77
2022/03/15 07:54:23;;;;;;;7.15;5.40;;;8.00;57.90;;;;;;5042205;28;20231;-78
2022/03/15 07:56:52;;;;;;;6.25;5.25;;;8.10;57.00;;;;;;5042897;28;20302;-77
2022/03/15 07:59:19;;;;;;;8.45;5.63;;;8.20;57.00;;;;;;5040880;28;20282;-78
2022/03/15 08:01:47;;;;;;;10.02;6.00;;;8.30;56.50;;;;;;5040730;28;20307;-78
2022/03/15 08:04:16;;;;;;;10.50;6.38;;;8.20;56.30;;;;;;5044530;28;20245;-78
2022/03/15 08:06:43;;;;;;;8.43;5.85;;;8.20;56.30;;;;;;5042725;28;20222;-79
2022/03/15 08:09:10;;;;;;;11.40;6.07;;;8.20;55.80;;;;;;5051293;28;20223;-78
2022/03/15 08:11:37;;;;;;;10.13;6.22;;;8.30;55.50;;;;;;5052868;28;20262;-77
2022/03/15 08:14:05;;;;;;;10.40;6.22;;;8.40;55.20;;;;;;5054408;28;20283;-76
2022/03/15 08:16:32;;;;;;;8.60;6.53;;;8.50;55.20;;;;;;5055863;28;20225;-76
2022/03/15 08:18:59;;;;;;;11.77;6.53;;;8.60;54.80;;;;;;5054689;28;20208;-77
2022/03/15 08:21:28;;;;;;;8.18;6.03;;;8.70;54.70;;;;;;5046883;28;20215;-75
2022/03/15 08:23:55;;;;;;;7.30;6.28;;;8.90;54.20;;;;;;5054452;28;20258;-77
2022/03/15 08:26:22;;;;;;;10.68;6.20;;;9.10;53.30;;;;;;5053906;28;20228;-75
2022/03/15 08:28:49;;;;;;;10.55;6.40;;;9.10;53.30;;;;;;5051986;28;20593;-76
2022/03/15 08:31:16;;;;;;;11.63;6.63;;;9.10;53.20;;;;;;5041075;28;20246;-77
2022/03/15 08:33:44;;;;;;;10.82;6.10;;;9.10;53.40;;;;;;5036810;28;20215;-77
2022/03/15 08:36:11;;;;;;;8.27;6.90;;;9.20;52.80;;;;;;5058566;22;20308;-74
2022/03/15 08:38:40;;;;;;;11.70;6.63;;;9.30;52.20;;;;;;5038309;28;20227;-74
2022/03/15 08:41:08;;;;;;;7.68;6.20;;;9.30;51.80;;;;;;5044548;28;20748;-73
2022/03/15 08:43:35;;;;;;;10.30;6.45;;;9.30;51.60;;;;;;5050309;28;20215;-74
2022/03/15 08:46:01;;;;;;;9.00;6.20;;;9.30;52.00;;;;;;5051989;28;20225;-74
2022/03/15 08:48:28;;;;;;;12.25;6.40;;;9.40;52.70;;;;;;5051592;28;20633;-74
2022/03/15 08:50:55;;;;;;;9.18;5.55;;;9.40;52.70;;;;;;5035480;28;20216;-74
2022/03/15 08:53:22;;;;;;;12.65;6.70;;;9.40;53.50;;;;;;5033650;28;20232;-75
2022/03/15 08:55:51;;;;;;;8.95;6.25;;;9.50;53.90;;;;;;5033442;28;20732;-74
2022/03/15 08:58:17;;;;;;;7.95;6.22;;;9.50;54.20;;;;;;5034035;28;20211;-74
2022/03/15 09:00:44;;;;;;;8.55;5.90;;;9.60;54.60;;;;;;5033335;28;20215;-75
2022/03/15 09:03:11;;;;;;;7.57;5.35;;;9.60;55.00;;;;;;5034039;28;20591;-75
2022/03/15 09:05:38;;;;;;;11.07;6.82;;;9.70;55.10;;;;;;5033875;28;20280;-75
2022/03/15 09:08:05;;;;;;;8.88;6.50;;;9.80;55.40;;;;;;5033848;28;20328;-74
2022/03/15 09:10:33;;;;;;;11.38;6.70;;;9.90;55.90;;;;;;5033498;28;20271;-75
2022/03/15 09:13:03;;;;;;;10.98;6.93;;;10.00;55.10;;;;;;5034473;28;20207;-74
2022/03/15 09:15:30;;;;;;;7.47;5.93;;;9.90;55.40;;;;;;5034752;28;20585;-74
2022/03/15 09:17:58;;;;;;;9.85;7.25;;;9.80;55.70;;;;;;5034401;28;20285;-74
2022/03/15 09:20:25;;;;;;;7.35;6.32;;;9.70;57.30;;;;;;5033930;28;20632;-75
2022/03/15 09:22:52;;;;;;;10.45;7.28;;;9.70;58.00;;;;;;5034660;28;20231;-75
2022/03/15 09:25:19;;;;;;;9.20;7.18;;;9.50;57.40;;;;;;5034354;28;20262;-74
2022/03/15 09:27:47;;;;;;;14.98;8.02;;;9.30;58.30;;;;;;5034234;28;20207;-74
2022/03/15 09:30:16;;;;;;;9.13;6.35;;;9.50;59.20;;;;;;5034214;28;20218;-74
2022/03/15 09:32:43;;;;;;;8.73;6.15;;;9.50;58.20;;;;;;5035001;28;20217;-73
2022/03/15 09:35:10;;;;;;;7.25;6.50;;;9.20;57.70;;;;;;5035131;28;20238;-75
2022/03/15 09:37:37;;;;;;;7.30;6.05;;;9.30;59.10;;;;;;5035368;28;20279;-75
2022/03/15 09:40:09;;;;;;;15.57;6.18;;;9.40;59.20;;;;;;5035157;28;20265;-74
2022/03/15 09:42:37;;;;;;;8.15;6.65;;;9.40;59.20;;;;;;5034870;28;20250;-74
2022/03/15 09:45:06;;;;;;;7.65;6.47;;;9.20;59.00;;;;;;5035628;28;20228;-74
2022/03/15 09:47:36;;;;;;;10.35;7.57;;;9.10;60.20;;;;;;5047407;28;20278;-75
2022/03/15 09:50:07;;;;;;;11.60;6.47;;;9.20;60.60;;;;;;5054106;28;20271;-73
2022/03/15 09:52:37;;;;;;;7.70;6.38;;;9.10;59.90;;;;;;5054577;28;20199;-74
2022/03/15 09:55:05;;;;;;;11.90;7.00;;;8.90;61.60;;;;;;5054558;28;20216;-74
2022/03/15 09:57:33;;;;;;;7.68;6.22;;;8.80;62.60;;;;;;5043753;28;20651;-75
2022/03/15 10:00:01;;;;;;;7.55;6.40;;;8.60;64.50;;;;;;5034733;28;20207;-74
2022/03/15 10:02:28;;;;;;;9.77;6.93;;;8.50;65.90;;;;;;5039324;28;20293;-75
2022/03/15 10:04:56;;;;;;;15.13;6.88;;;8.60;66.50;;;;;;5040207;28;20257;-73
2022/03/15 10:07:23;;;;;;;8.15;6.05;;;8.50;66.10;;;;;;5041030;28;20294;-75
2022/03/15 10:09:51;;;;;;;13.43;7.20;;;8.50;67.30;;;;;;5046002;28;20195;-72
2022/03/15 10:12:19;;;;;;;13.18;7.50;;;8.30;66.70;;;;;;5059129;28;20187;-75
2022/03/15 10:14:47;;;;;;;10.95;7.68;;;8.20;68.40;;;;;;5059356;28;20239;-74
2022/03/15 10:17:16;;;;;;;11.52;7.38;;;8.20;69.90;;;;;;5059344;28;20186;-73
2022/03/15 10:19:52;;;;;;;12.50;7.53;;;8.30;70.90;;;;;;5058656;28;20199;-73
2022/03/15 10:22:23;;;;;;;14.07;7.95;;;8.50;71.60;;;;;;5058569;28;20199;-74
2022/03/15 10:24:51;;;;;;;11.20;7.45;;;8.60;72.50;;;;;;5043766;28;20253;-74
2022/03/15 10:27:18;;;;;;;9.63;7.60;;;8.40;72.30;;;;;;5038891;28;20230;-75
2022/03/15 10:29:47;;;;;;;14.15;9.35;;;8.30;73.70;;;;;;5041677;28;20262;-74
2022/03/15 10:32:15;;;;;;;10.05;8.32;;;8.20;76.80;;;;;;5055274;28;20211;-74
2022/03/15 10:34:42;;;;;;;11.70;7.82;;;8.20;79.10;;;;;;5053418;28;20327;-74
2022/03/15 10:37:09;;;;;;;11.45;8.63;;;8.10;80.60;;;;;;5054685;28;20291;-74
2022/03/15 10:39:39;;;;;;;10.88;9.48;;;8.00;83.50;;;;;;5042712;28;20636;-75
2022/03/15 10:42:08;;;;;;;14.52;9.57;;;8.00;85.60;;;;;;5038370;28;20627;-75
2022/03/15 10:44:37;;;;;;;11.82;8.50;;;8.00;87.90;;;;;;5037498;28;20280;-75
2022/03/15 10:47:07;;;;;;;13.15;8.57;;;8.20;85.70;;;;;;5037257;28;20576;-74
2022/03/15 10:49:47;;;;;;;12.57;9.00;;;8.20;85.40;;;;;;5037301;28;20211;-75
2022/03/15 10:52:15;;;;;;;12.65;7.65;;;8.30;85.70;;;;;;5038847;28;20191;-74
2022/03/15 10:54:45;;;;;;;10.30;8.60;;;8.40;84.20;;;;;;5037917;28;20545;-74
2022/03/15 10:57:12;;;;;;;12.48;8.93;;;8.40;83.60;;;;;;5038703;28;20211;-74
2022/03/15 10:59:43;;;;;;;11.00;8.45;;;8.50;84.40;;;;;;5038780;28;20207;-74
2022/03/15 11:02:12;;;;;;;15.18;8.05;;;8.80;82.90;;;;;;5040324;28;20238;-75
2022/03/15 11:04:47;;;;;;;10.35;7.90;;;9.00;79.10;;;;;;5049498;28;20223;-75
2022/03/15 11:07:16;;;;;;;10.60;7.57;;;9.00;77.00;;;;;;5049166;28;20216;-75
2022/03/15 11:09:44;;;;;;;9.10;7.47;;;9.00;76.40;;;;;;5045204;28;20241;-74
2022/03/15 11:12:11;;;;;;;9.80;7.10;;;9.30;75.00;;;;;;5037347;28;20271;-75
2022/03/15 11:14:40;;;;;;;8.23;6.88;;;9.50;72.40;;;;;;5035307;28;20302;-76
2022/03/15 11:17:09;;;;;;;11.77;8.27;;;9.60;71.60;;;;;;5035722;28;20210;-74
2022/03/15 11:19:40;;;;;;;10.90;7.03;;;9.80;70.30;;;;;;5036398;28;20219;-74
2022/03/15 11:22:08;;;;;;;11.25;7.15;;;10.00;66.80;;;;;;5037903;28;20211;-75
2022/03/15 11:24:42;;;;;;;9.30;7.53;;;9.80;67.60;;;;;;5049228;28;20295;-75
2022/03/15 11:27:15;;;;;;;8.80;6.63;;;9.90;68.00;;;;;;5043383;28;20191;-75
2022/03/15 11:29:43;;;;;;;14.05;7.22;;;9.90;67.00;;;;;;5034973;28;20211;-75
2022/03/15 11:32:12;;;;;;;9.93;7.00;;;10.00;65.80;;;;;;5035423;28;20595;-75
2022/03/15 11:34:42;;;;;;;9.63;6.47;;;10.10;67.00;;;;;;5035041;28;20545;-75
2022/03/15 11:37:11;;;;;;;11.45;6.80;;;10.50;64.80;;;;;;5035816;28;20231;-75
2022/03/15 11:39:39;;;;;;;8.75;7.03;;;10.30;63.50;;;;;;5036261;28;20295;-74
2022/03/15 11:42:12;;;;;;;13.63;7.18;;;10.40;65.20;;;;;;5038333;28;20679;-74
2022/03/15 11:44:50;;;;;;;10.60;6.85;;;10.80;63.30;;;;;;5035332;28;20227;-74
2022/03/15 11:47:22;;;;;;;9.45;6.70;;;11.10;61.30;;;;;;5036162;28;20234;-75
2022/03/15 11:49:59;;;;;;;9.50;6.85;;;11.20;59.80;;;;;;5035294;28;20227;-75
2022/03/15 11:52:34;;;;;;;13.77;5.65;;;11.00;60.50;;;;;;5036920;28;20212;-76
2022/03/15 11:55:06;;;;;;;7.32;6.25;;;10.90;59.50;;;;;;5039521;28;20288;-73
2022/03/15 11:57:41;;;;;;;7.18;6.45;;;10.70;61.60;;;;;;5039942;28;20258;-74
2022/03/15 12:00:09;;;;;;;11.55;6.60;;;10.80;61.10;;;;;;5039388;28;20214;-75
2022/03/15 12:02:38;;;;;;;7.40;6.68;;;10.80;61.30;;;;;;5038748;28;20219;-75
2022/03/15 12:05:17;;;;;;;8.68;6.88;;;10.60;61.30;;;;;;5035590;28;20235;-75
2022/03/15 12:07:46;;;;;;;8.13;6.50;;;10.70;62.80;;;;;;5036383;28;20580;-75
2022/03/15 12:10:24;;;;;;;8.80;7.05;;;10.80;61.30;;;;;;5037065;28;20229;-75
2022/03/15 12:13:02;;;;;;;7.85;6.20;;;10.70;61.70;;;;;;5042304;28;20207;-75
2022/03/15 12:15:40;;;;;;;7.50;6.28;;;10.70;61.10;;;;;;5048702;28;20225;-74
2022/03/15 12:18:18;;;;;;;8.27;6.18;;;10.50;62.50;;;;;;5042099;28;20215;-75
2022/03/15 12:20:48;;;;;;;9.55;6.82;;;10.60;62.40;;;;;;5040795;28;20207;-75
2022/03/15 12:23:22;;;;;;;9.10;7.70;;;10.70;61.70;;;;;;5037297;28;20247;-74
2022/03/15 12:25:54;;;;;;;7.93;6.00;;;10.90;61.20;;;;;;5036686;28;20299;-75
2022/03/15 12:28:29;;;;;;;9.52;5.90;;;11.00;60.00;;;;;;5036502;28;20218;-76
2022/03/15 12:31:04;;;;;;;6.28;5.68;;;11.20;59.80;;;;;;5034811;28;20202;-75
2022/03/15 12:33:31;;;;;;;8.43;6.10;;;11.50;60.00;;;;;;5035972;28;20191;-74
2022/03/15 12:36:05;;;;;;;14.13;6.90;;;11.70;58.80;;;;;;5036628;28;20326;-75
2022/03/15 12:38:37;;;;;;;7.07;5.93;;;12.00;57.40;;;;;;5039310;28;20670;-77
2022/03/15 12:41:05;;;;;;;11.13;6.40;;;12.20;56.60;;;;;;5040608;28;20242;-74
2022/03/15 12:43:33;;;;;;;12.02;6.18;;;12.40;55.60;;;;;;5038890;28;20208;-78
2022/03/15 12:46:02;;;;;;;6.97;5.63;;;12.60;54.50;;;;;;5042748;28;20227;-74
2022/03/15 12:48:30;;;;;;;7.73;5.50;;;12.90;54.20;;;;;;5045217;28;20211;-75
2022/03/15 12:50:59;;;;;;;7.63;5.60;;;13.20;53.10;;;;;;5037502;28;20436;-74
2022/03/15 12:53:38;;;;;;;7.67;5.70;;;13.50;52.50;;;;;;5039391;28;20944;-75
2022/03/15 12:56:05;;;;;;;7.73;5.97;;;13.60;52.30;;;;;;5038899;28;20556;-75
2022/03/15 12:58:34;;;;;;;11.00;5.90;;;13.60;51.10;;;;;;5043467;28;20429;-74